Time;durP1;ratioP1;P1;durP2;ratioP2;P2;SDS_P1;SDS_P2;PMS_P1;PMS_P2;Temp;Humidity;BMP_temperature;BMP_pressure;BME280_temperature;BME280_humidity;BME280_pressure;Samples;Min_cycle;Max_cycle;Signal;HPM_P1;HPM_P2
2023/03/08 00:00:57;;;;;;;7.10;4.93;;;6.60;50.00;;;;;;4997872;28;20046;-91
2023/03/08 00:03:23;;;;;;;6.35;4.95;;;6.60;50.00;;;;;;4980179;28;20069;-93
2023/03/08 00:05:49;;;;;;;6.50;5.40;;;6.60;50.00;;;;;;4974214;28;20404;-89
2023/03/08 00:08:16;;;;;;;6.10;4.97;;;6.60;50.00;;;;;;4977084;28;20042;-89
2023/03/08 00:10:43;;;;;;;6.78;4.70;;;6.60;50.00;;;;;;4988363;28;20038;-84
2023/03/08 00:13:09;;;;;;;5.80;4.85;;;6.60;50.00;;;;;;4983954;28;20082;-88
2023/03/08 00:15:37;;;;;;;7.28;5.50;;;6.70;50.10;;;;;;4993400;28;20521;-89
2023/03/08 00:18:04;;;;;;;5.47;4.88;;;6.70;50.10;;;;;;4978568;28;20057;-87
2023/03/08 00:20:30;;;;;;;6.32;5.22;;;6.70;50.10;;;;;;4983889;28;20034;-85
2023/03/08 00:22:56;;;;;;;6.78;4.72;;;6.70;50.10;;;;;;4989224;28;20027;-85
2023/03/08 00:25:22;;;;;;;5.45;4.95;;;6.70;50.10;;;;;;4989011;28;20151;-84
2023/03/08 00:27:48;;;;;;;5.63;5.13;;;6.70;50.10;;;;;;4988674;28;20046;-86
2023/03/08 00:30:15;;;;;;;6.07;5.10;;;6.70;50.00;;;;;;4989867;28;20398;-83
2023/03/08 00:32:41;;;;;;;6.00;5.03;;;6.80;50.30;;;;;;4987068;28;20030;-82
2023/03/08 00:35:08;;;;;;;6.93;5.65;;;6.70;50.10;;;;;;4981289;28;20096;-84
2023/03/08 00:37:34;;;;;;;5.18;4.60;;;6.70;50.10;;;;;;4972116;28;20521;-84
2023/03/08 00:40:00;;;;;;;5.65;4.88;;;6.70;50.10;;;;;;4986881;28;20034;-81
2023/03/08 00:42:26;;;;;;;5.70;5.18;;;6.70;50.10;;;;;;4989606;28;20110;-85
2023/03/08 00:44:52;;;;;;;4.70;4.30;;;6.70;50.10;;;;;;4988428;28;20068;-84
2023/03/08 00:47:18;;;;;;;5.18;4.68;;;6.70;50.10;;;;;;4986932;28;20081;-84
2023/03/08 00:49:44;;;;;;;5.63;5.13;;;6.70;50.10;;;;;;4991128;28;20145;-86
2023/03/08 00:52:10;;;;;;;6.68;4.28;;;6.70;50.10;;;;;;4988504;28;20499;-86
2023/03/08 00:54:36;;;;;;;6.20;4.47;;;6.70;50.20;;;;;;4993283;28;20038;-86
2023/03/08 00:57:03;;;;;;;6.20;5.15;;;6.70;50.20;;;;;;4987868;28;20528;-85
2023/03/08 00:59:29;;;;;;;6.38;5.57;;;6.70;49.90;;;;;;4976658;28;20367;-86
2023/03/08 01:01:56;;;;;;;5.75;4.93;;;6.70;50.20;;;;;;4989668;28;20027;-88
2023/03/08 01:04:23;;;;;;;4.88;4.38;;;6.70;50.20;;;;;;4984702;28;20074;-88
2023/03/08 01:06:50;;;;;;;7.20;6.55;;;6.70;50.20;;;;;;4971863;28;20038;-88
2023/03/08 01:09:16;;;;;;;5.47;4.93;;;6.70;50.80;;;;;;4985727;28;20030;-92
2023/03/08 01:11:43;;;;;;;5.55;5.05;;;6.70;50.20;;;;;;5007100;28;20035;-95
2023/03/08 01:14:09;;;;;;;6.57;5.32;;;6.70;50.30;;;;;;4976791;28;20042;-88
2023/03/08 01:16:36;;;;;;;6.75;4.88;;;6.60;50.10;;;;;;4976980;28;20085;-88
2023/03/08 01:19:04;;;;;;;5.15;4.75;;;6.70;50.30;;;;;;4984374;28;20058;-87
2023/03/08 01:21:31;;;;;;;5.93;5.40;;;6.70;50.30;;;;;;4973063;28;20442;-87
2023/03/08 01:23:57;;;;;;;6.05;5.45;;;6.60;50.10;;;;;;4986774;28;20583;-87
2023/03/08 01:26:25;;;;;;;8.60;6.80;;;6.60;50.10;;;;;;4970795;28;20034;-85
2023/03/08 01:28:57;;;;;;;5.93;5.13;;;6.60;50.10;;;;;;4987809;28;20508;-86
2023/03/08 01:31:26;;;;;;;5.57;5.07;;;6.60;50.10;;;;;;4985992;28;20557;-86
2023/03/08 01:33:54;;;;;;;5.75;5.18;;;6.60;50.10;;;;;;4987642;28;20037;-85
2023/03/08 01:36:22;;;;;;;5.60;5.03;;;6.60;50.10;;;;;;4979972;28;20065;-85
2023/03/08 01:38:48;;;;;;;4.88;4.38;;;6.60;50.10;;;;;;4986824;28;20338;-87
2023/03/08 01:41:27;;;;;;;5.22;4.72;;;6.60;50.20;;;;;;4998648;28;20038;-87
2023/03/08 01:43:53;;;;;;;6.32;5.70;;;6.50;50.00;;;;;;4974280;28;20421;-90
2023/03/08 01:46:25;;;;;;;6.55;5.95;;;6.50;50.00;;;;;;4992947;28;20042;-89
2023/03/08 01:49:23;;;;;;;5.80;5.30;;;6.50;50.00;;;;;;5020406;28;20030;-87
2023/03/08 01:52:13;;;;;;;7.07;5.95;;;6.50;50.00;;;;;;5008991;28;20041;-85
2023/03/08 01:54:59;;;;;;;6.00;5.40;;;6.40;49.80;;;;;;5013481;28;20030;-89
2023/03/08 01:57:35;;;;;;;5.55;4.65;;;6.50;50.00;;;;;;4998814;28;20120;-89
2023/03/08 02:00:09;;;;;;;6.28;5.60;;;6.50;50.00;;;;;;5015466;28;20030;-90
2023/03/08 02:03:03;;;;;;;7.10;5.63;;;6.40;49.80;;;;;;4995061;28;20039;-90
2023/03/08 02:05:36;;;;;;;5.28;4.70;;;6.40;49.90;;;;;;5008209;28;20100;-90
2023/03/08 02:08:11;;;;;;;5.78;5.22;;;6.40;49.80;;;;;;4977336;28;20116;-89
2023/03/08 02:10:38;;;;;;;6.53;5.82;;;6.40;49.90;;;;;;4979479;28;20065;-89
2023/03/08 02:13:06;;;;;;;5.95;5.43;;;6.40;49.90;;;;;;4990953;28;20042;-90
2023/03/08 02:15:33;;;;;;;6.57;5.97;;;6.40;50.00;;;;;;4996187;28;20116;-90
2023/03/08 02:17:59;;;;;;;6.40;5.80;;;6.30;49.80;;;;;;4991970;28;20033;-88
2023/03/08 02:20:31;;;;;;;6.65;6.05;;;6.30;49.90;;;;;;4995724;28;20547;-89
2023/03/08 02:23:14;;;;;;;7.35;6.40;;;6.30;49.90;;;;;;5003847;28;20022;-87
2023/03/08 02:25:51;;;;;;;9.13;6.20;;;6.20;49.80;;;;;;4985402;28;20042;-87
2023/03/08 02:28:19;;;;;;;6.20;4.82;;;6.20;49.80;;;;;;5003668;28;20040;-88
2023/03/08 02:30:45;;;;;;;6.38;5.75;;;6.20;49.90;;;;;;5001255;28;20030;-88
2023/03/08 02:33:14;;;;;;;6.97;6.38;;;6.10;49.70;;;;;;4992054;28;20482;-90
2023/03/08 02:35:41;;;;;;;7.35;6.25;;;6.10;49.80;;;;;;4999778;28;20034;-95
2023/03/08 02:38:12;;;;;;;6.38;5.78;;;6.10;49.90;;;;;;4998269;28;20042;-88
2023/03/08 02:40:38;;;;;;;7.32;6.63;;;6.10;50.00;;;;;;5006671;28;20046;-90
2023/03/08 02:43:05;;;;;;;6.47;5.80;;;6.00;49.80;;;;;;4993382;28;20148;-90
2023/03/08 02:45:33;;;;;;;6.47;5.85;;;6.00;49.90;;;;;;4975146;28;20038;-90
2023/03/08 02:48:02;;;;;;;8.10;7.30;;;6.00;49.90;;;;;;4998384;28;20046;-85
2023/03/08 02:50:30;;;;;;;8.80;6.22;;;5.90;49.90;;;;;;4984966;28;20049;-87
2023/03/08 02:52:57;;;;;;;7.55;6.85;;;5.90;49.90;;;;;;4992196;28;20057;-87
2023/03/08 02:55:24;;;;;;;7.57;6.88;;;5.90;49.90;;;;;;4973202;28;20403;-87
2023/03/08 02:57:50;;;;;;;7.50;6.80;;;5.90;50.00;;;;;;4995889;28;20042;-86
2023/03/08 03:00:19;;;;;;;8.98;7.07;;;5.90;50.00;;;;;;4986719;28;20042;-84
2023/03/08 03:02:45;;;;;;;7.18;6.47;;;5.80;49.90;;;;;;4996548;28;20034;-88
2023/03/08 03:05:12;;;;;;;6.88;6.28;;;5.90;50.10;;;;;;4994608;28;20036;-86
2023/03/08 03:07:42;;;;;;;7.35;6.63;;;5.80;49.90;;;;;;4988664;28;20022;-87
2023/03/08 03:10:12;;;;;;;8.75;7.78;;;5.80;50.00;;;;;;4985616;28;20031;-85
2023/03/08 03:12:40;;;;;;;8.13;7.22;;;5.80;50.00;;;;;;4968864;28;20039;-85
2023/03/08 03:15:10;;;;;;;8.77;6.90;;;5.70;49.90;;;;;;4996941;28;20516;-84
2023/03/08 03:17:38;;;;;;;8.55;7.45;;;5.70;50.00;;;;;;4987832;28;20355;-86
2023/03/08 03:20:07;;;;;;;8.85;7.55;;;5.70;50.00;;;;;;4985432;28;20073;-86
2023/03/08 03:22:36;;;;;;;8.00;7.18;;;5.70;50.00;;;;;;4988419;28;20034;-84
2023/03/08 03:25:05;;;;;;;8.40;7.15;;;5.70;50.00;;;;;;4987851;28;20105;-85
2023/03/08 03:27:31;;;;;;;8.30;7.50;;;5.60;49.90;;;;;;4982280;28;20085;-85
2023/03/08 03:29:57;;;;;;;9.00;7.65;;;5.60;50.00;;;;;;4986691;28;20041;-83
2023/03/08 03:32:26;;;;;;;8.23;7.35;;;5.60;50.00;;;;;;4982495;28;20045;-85
2023/03/08 03:34:53;;;;;;;8.98;8.07;;;5.60;50.00;;;;;;4954586;28;20034;-85
2023/03/08 03:37:20;;;;;;;9.82;7.38;;;5.60;50.10;;;;;;4990548;28;20037;-81
2023/03/08 03:39:46;;;;;;;9.15;7.28;;;5.60;51.00;;;;;;4986797;28;20034;-80
2023/03/08 03:42:16;;;;;;;8.65;7.40;;;5.60;50.80;;;;;;4987546;28;20708;-77
2023/03/08 03:44:50;;;;;;;10.02;6.70;;;5.70;51.10;;;;;;4987840;28;20124;-83
2023/03/08 03:47:20;;;;;;;8.45;7.53;;;5.70;51.10;;;;;;4988949;28;20600;-81
2023/03/08 03:49:50;;;;;;;7.22;6.28;;;5.80;51.30;;;;;;4995669;28;20085;-82
2023/03/08 03:52:18;;;;;;;8.10;7.07;;;5.70;51.10;;;;;;4990461;28;20036;-83
2023/03/08 03:54:53;;;;;;;7.97;7.07;;;5.80;51.30;;;;;;4976300;28;20038;-81
2023/03/08 03:57:20;;;;;;;7.90;7.10;;;5.70;51.70;;;;;;4972093;28;20038;-81
2023/03/08 03:59:46;;;;;;;7.78;6.93;;;5.70;51.10;;;;;;4974648;28;20034;-83
2023/03/08 04:02:12;;;;;;;8.38;7.45;;;5.70;51.20;;;;;;4991025;28;20426;-82
2023/03/08 04:04:50;;;;;;;8.45;7.50;;;5.60;51.00;;;;;;4991920;28;20034;-82
2023/03/08 04:07:21;;;;;;;8.90;7.97;;;5.60;51.10;;;;;;4990578;28;20042;-83
2023/03/08 04:09:56;;;;;;;9.07;8.18;;;5.60;51.10;;;;;;4991135;28;20031;-82
2023/03/08 04:12:22;;;;;;;8.55;7.65;;;5.50;50.90;;;;;;4990557;28;20041;-83
2023/03/08 04:14:48;;;;;;;10.20;8.63;;;5.50;51.00;;;;;;4985634;28;20074;-83
2023/03/08 04:17:15;;;;;;;9.35;8.32;;;5.40;50.80;;;;;;4974462;28;20049;-81
2023/03/08 04:19:49;;;;;;;8.77;7.85;;;5.40;50.80;;;;;;4987774;28;20114;-82
2023/03/08 04:22:15;;;;;;;9.02;7.95;;;5.40;50.90;;;;;;4988891;28;20064;-82
2023/03/08 04:24:51;;;;;;;9.98;8.93;;;5.30;50.70;;;;;;4985314;28;20585;-83
2023/03/08 04:27:26;;;;;;;8.70;7.75;;;5.30;50.80;;;;;;4991839;28;20054;-82
2023/03/08 04:29:52;;;;;;;11.15;9.32;;;5.30;50.80;;;;;;4991165;28;20110;-82
2023/03/08 04:32:19;;;;;;;11.50;9.10;;;5.30;50.80;;;;;;4990505;28;20038;-81
2023/03/08 04:34:53;;;;;;;10.93;9.40;;;5.20;50.70;;;;;;4992252;28;20052;-81
2023/03/08 04:37:22;;;;;;;10.25;9.15;;;5.20;50.70;;;;;;4991241;28;20073;-82
2023/03/08 04:39:53;;;;;;;10.88;9.77;;;5.20;51.30;;;;;;4990387;28;20049;-84
2023/03/08 04:42:19;;;;;;;10.15;9.15;;;5.20;50.80;;;;;;4990779;28;20058;-83
2023/03/08 04:44:46;;;;;;;10.63;9.52;;;5.10;50.70;;;;;;4988958;28;20110;-84
2023/03/08 04:47:18;;;;;;;11.73;10.13;;;5.10;50.70;;;;;;4991040;28;20054;-83
2023/03/08 04:49:45;;;;;;;12.95;10.13;;;5.10;50.70;;;;;;4980864;28;20042;-83
2023/03/08 04:52:12;;;;;;;11.93;10.52;;;5.10;50.70;;;;;;4990272;28;20062;-82
2023/03/08 04:54:39;;;;;;;10.77;9.43;;;5.10;50.70;;;;;;4991248;28;20026;-83
2023/03/08 04:57:14;;;;;;;11.60;9.90;;;5.10;50.70;;;;;;4991483;28;20042;-85
2023/03/08 04:59:43;;;;;;;12.35;10.32;;;5.10;50.70;;;;;;4988930;28;20182;-84
2023/03/08 05:02:11;;;;;;;13.57;11.05;;;5.10;50.80;;;;;;4989279;28;20030;-85
2023/03/08 05:04:38;;;;;;;11.45;10.10;;;5.00;50.60;;;;;;4991267;28;20120;-87
2023/03/08 05:07:08;;;;;;;13.10;10.15;;;5.00;50.60;;;;;;4989964;28;20046;-83
2023/03/08 05:09:36;;;;;;;12.25;10.52;;;5.00;50.70;;;;;;4991601;28;20056;-85
2023/03/08 05:12:02;;;;;;;11.70;10.50;;;5.00;50.70;;;;;;4973954;28;20173;-86
2023/03/08 05:14:40;;;;;;;15.10;11.25;;;5.00;50.70;;;;;;4991747;28;20035;-85
2023/03/08 05:17:07;;;;;;;11.35;10.18;;;5.00;51.40;;;;;;4989094;28;20038;-85
2023/03/08 05:19:37;;;;;;;12.57;11.27;;;5.00;50.70;;;;;;4990747;28;20049;-83
2023/03/08 05:22:04;;;;;;;13.80;11.57;;;5.00;50.80;;;;;;4987933;28;20474;-80
2023/03/08 05:24:31;;;;;;;13.32;10.63;;;4.90;50.60;;;;;;4985626;28;20044;-81
2023/03/08 05:27:02;;;;;;;12.85;11.25;;;4.90;50.70;;;;;;4990110;28;20034;-78
2023/03/08 05:29:28;;;;;;;12.27;10.40;;;4.90;50.70;;;;;;4989547;28;20110;-80
2023/03/08 05:31:56;;;;;;;12.60;10.95;;;4.90;50.70;;;;;;4988273;28;20030;-82
2023/03/08 05:34:22;;;;;;;12.57;10.93;;;4.90;50.70;;;;;;4989012;28;20627;-80
2023/03/08 05:36:48;;;;;;;14.07;11.95;;;4.90;50.80;;;;;;4990768;28;20058;-82
2023/03/08 05:39:14;;;;;;;12.65;11.10;;;4.80;50.60;;;;;;4988830;28;20554;-81
2023/03/08 05:41:47;;;;;;;12.35;11.00;;;4.90;50.80;;;;;;4990070;28;20533;-84
2023/03/08 05:44:20;;;;;;;;;;;4.80;50.70;;;;;;4990628;28;20027;-86
2023/03/08 05:46:52;;;;;;;12.40;10.63;;;4.90;50.80;;;;;;4993501;28;19921;-83
2023/03/08 05:49:21;;;;;;;12.35;10.77;;;4.80;50.50;;;;;;4990794;28;20038;-82
2023/03/08 05:51:48;;;;;;;14.43;11.60;;;4.80;50.50;;;;;;4990246;28;20029;-81
2023/03/08 05:54:14;;;;;;;13.48;11.45;;;4.80;51.10;;;;;;4996175;28;20651;-85
2023/03/08 05:56:48;;;;;;;13.30;11.63;;;4.90;50.80;;;;;;4988465;28;20061;-84
2023/03/08 05:59:22;;;;;;;12.15;10.85;;;4.80;50.60;;;;;;5001240;28;20033;-86
2023/03/08 06:01:49;;;;;;;13.25;11.43;;;4.80;50.70;;;;;;4997157;28;20154;-85
2023/03/08 06:04:35;;;;;;;14.90;11.43;;;4.80;50.70;;;;;;4992403;28;20525;-83
2023/03/08 06:07:01;;;;;;;13.32;11.30;;;4.80;50.70;;;;;;4996876;28;20091;-84
2023/03/08 06:09:33;;;;;;;13.07;11.67;;;4.80;50.70;;;;;;4989280;28;20526;-82
2023/03/08 06:11:59;;;;;;;13.75;11.35;;;4.80;50.80;;;;;;4998330;28;20267;-84
2023/03/08 06:14:25;;;;;;;14.20;12.20;;;4.80;50.90;;;;;;4989402;28;20525;-82
2023/03/08 06:16:52;;;;;;;13.75;12.02;;;4.80;50.90;;;;;;4971062;28;20093;-83
2023/03/08 06:19:21;;;;;;;13.35;11.70;;;4.70;50.70;;;;;;4991477;28;20041;-83
2023/03/08 06:21:49;;;;;;;12.25;11.00;;;4.70;50.80;;;;;;4989125;28;20038;-83
2023/03/08 06:24:18;;;;;;;13.38;11.55;;;4.70;50.80;;;;;;4993593;28;20061;-84
2023/03/08 06:26:44;;;;;;;14.43;12.18;;;4.70;50.80;;;;;;4988943;28;20034;-85
2023/03/08 06:29:11;;;;;;;12.63;11.00;;;4.70;50.80;;;;;;4997651;28;20133;-84
2023/03/08 06:31:37;;;;;;;13.77;11.73;;;4.70;50.90;;;;;;4987176;28;20687;-83
2023/03/08 06:34:05;;;;;;;13.07;11.60;;;4.70;50.90;;;;;;4984823;28;20285;-82
2023/03/08 06:36:32;;;;;;;13.88;11.50;;;4.70;50.90;;;;;;4983404;28;20108;-83
2023/03/08 06:38:59;;;;;;;14.40;12.10;;;4.70;51.00;;;;;;5000909;28;20322;-86
2023/03/08 06:41:28;;;;;;;14.57;12.13;;;4.70;51.00;;;;;;4983645;28;20045;-87
2023/03/08 06:43:56;;;;;;;14.30;12.20;;;4.70;51.00;;;;;;4995341;28;20117;-86
2023/03/08 06:46:23;;;;;;;13.70;12.13;;;4.70;51.00;;;;;;4983917;28;20042;-89
2023/03/08 06:48:50;;;;;;;14.05;12.25;;;4.70;51.00;;;;;;4998950;28;20094;-88
2023/03/08 06:51:17;;;;;;;14.55;12.27;;;4.70;51.10;;;;;;4987577;28;20342;-85
2023/03/08 06:53:45;;;;;;;13.48;11.65;;;4.80;51.60;;;;;;4968163;28;20042;-84
2023/03/08 06:56:16;;;;;;;14.68;11.93;;;4.80;51.60;;;;;;4993075;28;20062;-86
2023/03/08 06:58:43;;;;;;;16.00;12.13;;;4.80;51.60;;;;;;4986115;28;20510;-81
2023/03/08 07:01:12;;;;;;;17.80;14.18;;;4.90;51.90;;;;;;4988160;28;20044;-82
2023/03/08 07:03:40;;;;;;;17.17;13.50;;;4.90;52.10;;;;;;4983202;28;20101;-81
2023/03/08 07:06:09;;;;;;;16.63;13.30;;;5.00;52.40;;;;;;4987124;28;20045;-80
2023/03/08 07:08:38;;;;;;;14.68;12.60;;;5.00;52.30;;;;;;4992604;28;20045;-81
2023/03/08 07:11:10;;;;;;;15.57;12.77;;;5.00;52.30;;;;;;4989577;28;20039;-82
2023/03/08 07:13:37;;;;;;;15.57;12.73;;;5.00;52.30;;;;;;4986032;28;20042;-83
2023/03/08 07:16:09;;;;;;;15.35;12.90;;;5.10;52.50;;;;;;4986665;28;20054;-84
2023/03/08 07:18:35;;;;;;;16.35;13.15;;;5.00;52.30;;;;;;4982533;28;20749;-79
2023/03/08 07:21:02;;;;;;;14.15;11.82;;;5.00;52.30;;;;;;4986488;28;20033;-80
2023/03/08 07:23:28;;;;;;;14.45;12.63;;;5.00;52.30;;;;;;4983980;28;20062;-82
2023/03/08 07:25:54;;;;;;;14.07;12.32;;;5.00;52.30;;;;;;4987095;28;20057;-80
2023/03/08 07:28:22;;;;;;;13.50;11.65;;;5.00;52.50;;;;;;4993223;28;20074;-82
2023/03/08 07:30:51;;;;;;;16.17;13.48;;;5.00;52.70;;;;;;4988263;28;20038;-78
2023/03/08 07:33:18;;;;;;;15.52;12.30;;;5.10;52.90;;;;;;4986473;28;20077;-79
2023/03/08 07:35:45;;;;;;;16.40;12.68;;;5.20;53.00;;;;;;4978327;28;20069;-78
2023/03/08 07:38:11;;;;;;;16.10;12.35;;;5.20;53.10;;;;;;4997564;28;20034;-82
2023/03/08 07:40:37;;;;;;;15.05;12.60;;;5.20;53.00;;;;;;4978773;28;20753;-80
2023/03/08 07:43:03;;;;;;;14.60;13.02;;;5.10;52.80;;;;;;4983029;28;20103;-83
2023/03/08 07:45:49;;;;;;;15.95;13.02;;;5.20;53.10;;;;;;4977283;28;20679;-83
2023/03/08 07:48:15;;;;;;;14.57;12.88;;;5.20;53.00;;;;;;4997752;28;20046;-83
2023/03/08 07:50:41;;;;;;;18.20;13.57;;;5.20;53.00;;;;;;4992577;28;20046;-82
2023/03/08 07:53:07;;;;;;;16.48;12.77;;;5.20;53.10;;;;;;5003739;28;20531;-82
2023/03/08 07:55:36;;;;;;;14.30;12.00;;;5.20;53.00;;;;;;4984951;28;20054;-81
2023/03/08 07:58:01;;;;;;;17.17;14.35;;;5.20;53.00;;;;;;4991681;28;20033;-81
2023/03/08 08:00:27;;;;;;;15.50;12.40;;;5.20;53.00;;;;;;4997045;28;20026;-82
2023/03/08 08:02:54;;;;;;;14.07;11.50;;;5.10;52.80;;;;;;4990035;28;20137;-83
2023/03/08 08:05:23;;;;;;;15.18;12.18;;;5.10;52.80;;;;;;4990266;28;20666;-82
2023/03/08 08:07:49;;;;;;;16.15;12.82;;;5.10;52.80;;;;;;4990094;28;20038;-83
2023/03/08 08:10:15;;;;;;;13.95;12.35;;;5.20;53.00;;;;;;4993675;28;20429;-82
2023/03/08 08:12:43;;;;;;;15.10;11.82;;;5.10;52.80;;;;;;4987496;28;20068;-81
2023/03/08 08:15:09;;;;;;;12.88;11.32;;;5.10;52.80;;;;;;4987140;28;20045;-83
2023/03/08 08:17:36;;;;;;;12.45;11.02;;;5.10;52.80;;;;;;4970787;28;20034;-81
2023/03/08 08:20:05;;;;;;;14.43;11.45;;;5.10;52.80;;;;;;4988284;28;20038;-83
2023/03/08 08:22:35;;;;;;;12.23;10.52;;;5.10;52.80;;;;;;4989363;28;20088;-81
2023/03/08 08:25:05;;;;;;;11.48;10.25;;;5.10;53.00;;;;;;4980975;28;20035;-82
2023/03/08 08:27:31;;;;;;;11.32;10.13;;;5.20;53.10;;;;;;4971117;28;20042;-84
2023/03/08 08:30:00;;;;;;;11.57;10.18;;;5.20;53.60;;;;;;4988426;28;20030;-80
2023/03/08 08:32:26;;;;;;;10.95;9.02;;;5.20;53.00;;;;;;4979516;28;20677;-83
2023/03/08 08:34:53;;;;;;;10.65;9.55;;;5.30;53.20;;;;;;4983310;28;20030;-84
2023/03/08 08:37:19;;;;;;;10.63;9.50;;;5.20;53.10;;;;;;4984988;28;20049;-80
2023/03/08 08:39:45;;;;;;;10.60;9.48;;;5.30;53.20;;;;;;5002968;28;20045;-82
2023/03/08 08:42:11;;;;;;;11.73;9.13;;;5.30;53.20;;;;;;4988911;28;20034;-80
2023/03/08 08:44:37;;;;;;;12.88;9.38;;;5.30;53.20;;;;;;5000665;28;20030;-82
2023/03/08 08:47:03;;;;;;;9.02;8.13;;;5.30;53.10;;;;;;5002869;28;20046;-83
2023/03/08 08:49:29;;;;;;;11.57;9.48;;;5.30;53.10;;;;;;4977657;28;20118;-80
2023/03/08 08:51:55;;;;;;;9.93;8.25;;;5.40;53.30;;;;;;4994527;28;20034;-81
2023/03/08 08:54:21;;;;;;;11.60;9.25;;;5.40;53.20;;;;;;4997776;28;20053;-79
2023/03/08 08:56:47;;;;;;;9.80;8.80;;;5.50;53.30;;;;;;4990130;28;20050;-80
2023/03/08 08:59:15;;;;;;;9.48;8.57;;;5.50;53.20;;;;;;4989446;28;20439;-80
2023/03/08 09:01:43;;;;;;;10.38;9.27;;;5.50;53.20;;;;;;4993955;28;20185;-79
2023/03/08 09:04:12;;;;;;;10.88;9.75;;;5.60;53.80;;;;;;4992095;28;20114;-79
2023/03/08 09:06:40;;;;;;;9.35;8.30;;;5.60;53.10;;;;;;4998372;28;20030;-79
2023/03/08 09:09:06;;;;;;;8.93;8.02;;;5.70;53.20;;;;;;4990230;28;20489;-79
2023/03/08 09:11:33;;;;;;;10.30;9.02;;;5.70;53.10;;;;;;4999191;28;20037;-82
2023/03/08 09:14:01;;;;;;;9.85;8.85;;;5.80;53.20;;;;;;4996856;28;20122;-79
2023/03/08 09:16:32;;;;;;;9.50;8.50;;;5.80;53.20;;;;;;4980837;28;20057;-77
2023/03/08 09:19:01;;;;;;;9.73;8.73;;;5.90;53.20;;;;;;4991889;28;20026;-79
2023/03/08 09:21:28;;;;;;;8.70;7.78;;;5.90;53.20;;;;;;4985012;28;20038;-80
2023/03/08 09:23:58;;;;;;;10.98;9.88;;;5.90;53.10;;;;;;4996602;28;20100;-80
2023/03/08 09:26:24;;;;;;;9.02;8.13;;;6.00;53.20;;;;;;4999512;28;20105;-78
2023/03/08 09:28:50;;;;;;;8.30;7.50;;;6.10;53.30;;;;;;4996055;28;20029;-78
2023/03/08 09:31:16;;;;;;;9.55;8.63;;;6.10;53.20;;;;;;4997120;28;20050;-79
2023/03/08 09:33:52;;;;;;;8.52;7.70;;;6.20;53.30;;;;;;4987147;28;20026;-79
2023/03/08 09:36:19;;;;;;;8.48;7.63;;;6.30;53.30;;;;;;4993455;28;20132;-78
2023/03/08 09:38:52;;;;;;;8.63;7.82;;;6.30;53.20;;;;;;4991888;28;20061;-80
2023/03/08 09:41:24;;;;;;;8.75;7.90;;;6.30;53.60;;;;;;4987663;28;20069;-80
2023/03/08 09:44:12;;;;;;;8.52;7.72;;;6.40;53.20;;;;;;4982411;28;20034;-80
2023/03/08 09:47:21;;;;;;;7.53;6.82;;;6.40;53.10;;;;;;4983632;28;20563;-78
2023/03/08 09:49:51;;;;;;;7.57;6.88;;;6.50;53.20;;;;;;4979385;28;20098;-79
2023/03/08 09:52:39;;;;;;;7.97;7.18;;;6.50;53.10;;;;;;5005120;28;20050;-78
2023/03/08 09:55:17;;;;;;;7.93;7.18;;;6.50;53.00;;;;;;5005318;28;20042;-78
2023/03/08 09:57:51;;;;;;;7.10;6.50;;;6.60;53.10;;;;;;5004934;28;20157;-82
2023/03/08 10:00:24;;;;;;;7.55;6.85;;;6.60;53.10;;;;;;5021929;28;20041;-81
2023/03/08 10:03:01;;;;;;;6.88;6.25;;;6.70;53.20;;;;;;4994019;28;20174;-82
2023/03/08 10:05:46;;;;;;;7.93;7.18;;;6.70;53.70;;;;;;5012333;28;20105;-82
2023/03/08 10:08:37;;;;;;;7.70;6.95;;;6.70;53.10;;;;;;5008622;28;20037;-82
2023/03/08 10:11:12;;;;;;;7.38;6.68;;;6.60;53.00;;;;;;5001590;28;20034;-84
2023/03/08 10:13:54;;;;;;;6.45;5.82;;;6.70;53.20;;;;;;4995295;28;20112;-82
2023/03/08 10:16:35;;;;;;;6.47;5.87;;;6.60;53.00;;;;;;5003491;28;20072;-82
2023/03/08 10:19:12;;;;;;;6.47;5.70;;;6.70;53.10;;;;;;4999815;28;20053;-81
2023/03/08 10:21:41;;;;;;;6.50;5.45;;;6.70;53.10;;;;;;4992538;28;20038;-80
2023/03/08 10:24:38;;;;;;;6.10;5.50;;;6.70;53.10;;;;;;4997087;28;20109;-84
2023/03/08 10:27:17;;;;;;;5.70;5.20;;;6.70;53.10;;;;;;4990150;28;20077;-83
2023/03/08 10:29:48;;;;;;;5.32;4.82;;;6.70;53.00;;;;;;4987579;28;20577;-80
2023/03/08 10:32:15;;;;;;;4.85;4.45;;;6.70;53.10;;;;;;4983209;28;20104;-78
2023/03/08 10:34:41;;;;;;;5.05;4.55;;;6.60;52.90;;;;;;4981390;28;20033;-78
2023/03/08 10:37:08;;;;;;;5.75;5.25;;;6.60;53.00;;;;;;4983749;28;20121;-79
2023/03/08 10:39:36;;;;;;;6.32;5.03;;;6.60;53.00;;;;;;4983123;28;20030;-79
2023/03/08 10:42:13;;;;;;;4.72;4.32;;;6.60;53.10;;;;;;4988194;28;20037;-78
2023/03/08 10:44:51;;;;;;;4.60;4.20;;;6.60;53.10;;;;;;4987551;28;20765;-78
2023/03/08 10:47:29;;;;;;;4.90;4.40;;;6.60;53.00;;;;;;4986205;28;20059;-80
2023/03/08 10:50:16;;;;;;;4.43;4.03;;;6.60;52.90;;;;;;4991909;28;20057;-81
2023/03/08 10:52:44;;;;;;;4.75;4.35;;;6.60;52.90;;;;;;4986972;28;20077;-82
2023/03/08 10:55:22;;;;;;;4.38;4.07;;;6.70;53.00;;;;;;4995053;28;20057;-81
2023/03/08 10:57:58;;;;;;;4.43;4.03;;;6.60;52.90;;;;;;4986862;28;20119;-78
2023/03/08 11:00:28;;;;;;;4.35;3.95;;;6.60;52.90;;;;;;4989542;28;20408;-78
2023/03/08 11:03:17;;;;;;;4.68;3.88;;;6.60;52.80;;;;;;4983879;28;20808;-79
2023/03/08 11:05:58;;;;;;;4.35;4.03;;;6.60;52.90;;;;;;4983500;28;20125;-77
2023/03/08 11:08:30;;;;;;;4.72;4.32;;;6.60;52.90;;;;;;4986744;28;20041;-78
2023/03/08 11:11:11;;;;;;;4.20;3.80;;;6.50;52.70;;;;;;4985207;28;20111;-79
2023/03/08 11:13:46;;;;;;;4.00;3.70;;;6.50;52.80;;;;;;4986585;28;20073;-80
2023/03/08 11:16:21;;;;;;;3.90;3.60;;;6.50;52.80;;;;;;4985219;28;20112;-79
2023/03/08 11:19:04;;;;;;;4.53;4.13;;;6.40;52.70;;;;;;4988896;28;20030;-80
2023/03/08 11:22:03;;;;;;;4.22;3.72;;;6.50;53.00;;;;;;4984778;28;20113;-78
2023/03/08 11:24:42;;;;;;;3.53;3.22;;;6.50;53.00;;;;;;4992791;28;20080;-78
2023/03/08 11:27:43;;;;;;;4.03;3.63;;;6.50;52.90;;;;;;4987293;28;20117;-78
2023/03/08 11:30:31;;;;;;;3.67;3.38;;;6.50;52.80;;;;;;4960092;28;20046;-78
2023/03/08 11:33:15;;;;;;;4.00;3.70;;;6.60;52.90;;;;;;4980466;28;20525;-78
2023/03/08 11:36:24;;;;;;;3.58;3.28;;;6.60;52.80;;;;;;4996403;28;20636;-79
2023/03/08 11:38:58;;;;;;;4.03;3.65;;;6.60;52.80;;;;;;4943374;28;20122;-79
2023/03/08 11:41:42;;;;;;;3.47;3.17;;;6.80;53.00;;;;;;4925406;28;20139;-78
2023/03/08 11:44:35;;;;;;;3.50;3.05;;;6.80;52.90;;;;;;4966972;28;20498;-78
2023/03/08 11:47:01;;;;;;;;;;;6.90;52.90;;;;;;4991159;28;20783;-76
2023/03/08 11:49:45;;;;;;;4.35;3.95;;;6.90;52.70;;;;;;4986179;28;20064;-79
2023/03/08 11:52:14;;;;;;;4.32;3.58;;;6.90;52.70;;;;;;4978022;28;20035;-79
2023/03/08 11:54:49;;;;;;;3.28;3.00;;;7.00;52.80;;;;;;4986331;28;20061;-80
2023/03/08 11:57:16;;;;;;;3.40;3.10;;;7.00;52.90;;;;;;4986661;28;20129;-80
2023/03/08 11:59:51;;;;;;;3.13;2.83;;;7.10;53.40;;;;;;4994790;28;20038;-79
2023/03/08 12:02:27;;;;;;;3.40;3.10;;;7.30;53.80;;;;;;4985571;28;20149;-79
2023/03/08 12:05:12;;;;;;;4.97;2.85;;;7.50;54.00;;;;;;4967855;28;20042;-80
2023/03/08 12:07:46;;;;;;;3.10;2.85;;;7.70;54.20;;;;;;4972495;28;20437;-78
2023/03/08 12:10:23;;;;;;;3.63;3.13;;;7.80;54.10;;;;;;4981411;28;20062;-78
2023/03/08 12:12:56;;;;;;;2.90;2.70;;;7.90;54.20;;;;;;4985891;28;20066;-79
2023/03/08 12:15:42;;;;;;;3.08;2.88;;;7.90;54.20;;;;;;4986910;28;20042;-78
2023/03/08 12:18:28;;;;;;;2.90;2.70;;;7.90;54.10;;;;;;4985319;28;20097;-79
2023/03/08 12:21:18;;;;;;;2.92;2.72;;;8.00;54.20;;;;;;4985289;28;20142;-78
2023/03/08 12:23:57;;;;;;;3.10;2.90;;;8.00;54.10;;;;;;4991470;28;20104;-79
2023/03/08 12:26:34;;;;;;;3.70;3.40;;;8.00;54.00;;;;;;4980546;28;20050;-80
2023/03/08 12:29:30;;;;;;;2.72;2.53;;;8.10;54.10;;;;;;4992880;28;20117;-80
2023/03/08 12:31:56;;;;;;;2.90;2.70;;;8.10;54.00;;;;;;4984125;28;20678;-80
2023/03/08 12:34:48;;;;;;;3.25;3.05;;;8.20;54.00;;;;;;4984414;28;20494;-81
2023/03/08 12:37:26;;;;;;;3.45;3.15;;;8.30;54.00;;;;;;4981089;28;20061;-81
2023/03/08 12:39:56;;;;;;;3.00;2.80;;;8.30;54.00;;;;;;5003083;28;20384;-82
2023/03/08 12:42:34;;;;;;;2.92;2.72;;;8.30;53.80;;;;;;4994495;28;20030;-82
2023/03/08 12:45:13;;;;;;;3.20;3.00;;;8.30;53.80;;;;;;4987079;28;20034;-81
2023/03/08 12:47:59;;;;;;;2.88;2.67;;;8.40;53.90;;;;;;4983006;28;20054;-81
2023/03/08 12:50:27;;;;;;;3.53;3.33;;;8.40;53.80;;;;;;4989782;28;20039;-83
2023/03/08 12:52:54;;;;;;;3.30;3.10;;;8.50;53.80;;;;;;4986961;28;20031;-81
2023/03/08 12:55:30;;;;;;;3.97;3.25;;;8.60;53.90;;;;;;4988124;28;20486;-82
2023/03/08 12:58:04;;;;;;;3.05;2.78;;;8.60;53.70;;;;;;5002164;28;20122;-80
2023/03/08 13:00:35;;;;;;;3.25;3.05;;;8.70;53.70;;;;;;5000247;28;20116;-79
2023/03/08 13:03:13;;;;;;;3.33;3.03;;;8.70;53.70;;;;;;4984443;28;20038;-82
2023/03/08 13:05:46;;;;;;;3.22;2.97;;;8.70;53.70;;;;;;4983763;28;20041;-79
2023/03/08 13:08:13;;;;;;;3.30;3.10;;;8.70;53.60;;;;;;4990533;28;20042;-81
2023/03/08 13:10:51;;;;;;;3.25;3.05;;;8.70;53.50;;;;;;4986616;28;20061;-81